Osseo, Minnesota
Current Conditions -  °F | °C
As of 7:10 PM on Saturday 22 Nov 2014 (Local Time) from KMIC Reporting Station
Haze Haze  
Wind Chill: 30°   Ceiling: 500
Heat Index: 37°   Visibility: 2.5mi
Dew Point: 34°   Wind: 9mph
Humidity: 89%   Direction: 150°SSE
Pressure: 29.59"   Gusts: NA
Location:  45.12°N, 93.4°W
Report Text: KMIC 230110Z 15008KT 2 1/2SM BR OVC005 03/01 A2959 RMK AO2 T00280011
Loading
Personal Weather Stations






























Interactive Weather Map New forecast layout! Learn more

10-Day Weather Forecast

Advertisements
Track Severe Weather on mobile